Terminal Aerodrome Forecast
Issued by NWS Charleston, WV

Current Version | Previous Version | Graphics & Text | Print | Product List | Glossary On
Versions: 1 2 3 4 5 6 7 8 9 10 11 12 13 14 15 16 17 18 19 20 21 22 23 24 25
743
FTUS41 KRLX 231120
TAFHTS
TAF
KHTS 231120Z 2312/2412 35007KT P6SM FEW009 BKN045 OVC060
     FM231500 34004KT P6SM SCT080
     FM231800 32005KT P6SM FEW250
     FM240500 00000KT 5SM BR FEW100
     FM240900 00000KT 2SM BR FEW050=

USA.gov is the U.S. government's official web portal to all federal, state and local government web resources and services.